Time;durP1;ratioP1;P1;durP2;ratioP2;P2;SDS_P1;SDS_P2;PMS_P1;PMS_P2;Temp;Humidity;BMP_temperature;BMP_pressure;BME280_temperature;BME280_humidity;BME280_pressure;Samples;Min_cycle;Max_cycle;Signal;HPM_P1;HPM_P2
2022/06/21 00:01:20;;;;;;;2.15;0.68;;;;;;;16.91;49.71;96661.81;6239461;23;20029;-80
2022/06/21 00:03:49;;;;;;;0.80;0.60;;;;;;;16.94;49.91;96669.28;6239009;23;20052;-80
2022/06/21 00:06:23;;;;;;;2.05;0.70;;;;;;;17.00;50.55;96670.22;6238738;23;20016;-80
2022/06/21 00:08:51;;;;;;;1.33;0.75;;;;;;;17.05;55.20;96673.00;6238886;23;20047;-81
2022/06/21 00:11:26;;;;;;;4.13;0.95;;;;;;;17.10;53.41;96670.53;6238258;23;20080;-81
2022/06/21 00:13:55;;;;;;;1.27;0.65;;;;;;;17.20;56.53;96673.44;6238095;23;20028;-81
2022/06/21 00:16:24;;;;;;;2.47;0.77;;;;;;;17.23;53.06;96678.28;6237760;23;20017;-81
2022/06/21 00:18:53;;;;;;;2.40;0.88;;;;;;;17.17;52.45;96673.88;6237938;23;20027;-80
2022/06/21 00:21:25;;;;;;;1.90;0.85;;;;;;;17.16;56.01;96671.47;6237034;23;20020;-81
2022/06/21 00:23:55;;;;;;;1.83;0.82;;;;;;;17.08;52.88;96669.94;6238398;23;20021;-81
2022/06/21 00:26:26;;;;;;;1.98;0.90;;;;;;;16.98;52.88;96669.66;6228715;22;20091;-77
2022/06/21 00:28:54;;;;;;;2.03;1.00;;;;;;;16.93;53.01;96678.22;6213862;23;20079;-77
2022/06/21 00:31:24;;;;;;;1.88;0.70;;;;;;;16.91;52.08;96671.56;6214192;23;20087;-77
2022/06/21 00:33:52;;;;;;;2.15;1.10;;;;;;;16.85;51.88;96671.41;6214367;23;20531;-77
2022/06/21 00:36:24;;;;;;;2.25;1.02;;;;;;;16.76;51.15;96672.69;6216603;23;20100;-76
2022/06/21 00:38:52;;;;;;;;;;;;;;;16.75;52.17;96679.00;6216781;23;20107;-77
2022/06/21 00:41:25;;;;;;;2.80;0.63;;;;;;;16.79;55.91;96680.16;6216199;23;19994;-77
2022/06/21 00:43:55;;;;;;;1.20;0.90;;;;;;;16.84;53.96;96674.28;6235518;23;20392;-77
2022/06/21 00:46:39;;;;;;;0.90;0.90;;;;;;;16.91;54.94;96668.94;6241734;23;20024;-77
2022/06/21 00:49:14;;;;;;;1.77;1.00;;;;;;;16.83;51.38;96673.44;6230706;23;20017;-77
2022/06/21 00:51:43;;;;;;;2.92;1.00;;;;;;;16.74;52.29;96669.47;6217437;23;20026;-77
2022/06/21 00:54:17;;;;;;;4.03;1.40;;;;;;;16.68;50.88;96670.34;6217210;23;20088;-77
2022/06/21 00:56:52;;;;;;;7.97;0.80;;;;;;;16.61;51.08;96666.97;6216880;23;20048;-77
2022/06/21 00:59:23;;;;;;;1.77;0.82;;;;;;;16.53;51.13;96660.16;6216030;23;20013;-77
2022/06/21 01:01:54;;;;;;;2.17;0.82;;;;;;;16.46;51.17;96657.59;6215832;23;20021;-77
2022/06/21 01:04:28;;;;;;;2.03;1.00;;;;;;;16.49;56.47;96659.00;6216553;23;20024;-77
2022/06/21 01:07:00;;;;;;;1.08;1.08;;;;;;;16.57;57.00;96657.88;6216139;23;20059;-77
2022/06/21 01:09:33;;;;;;;1.25;1.00;;;;;;;16.66;56.49;96659.22;6216432;23;20056;-77
2022/06/21 01:12:06;;;;;;;1.38;1.10;;;;;;;16.64;53.49;96661.28;6216156;23;20167;-77
2022/06/21 01:14:36;;;;;;;;;;;;;;;16.58;53.55;96656.88;6216404;23;20461;-77
2022/06/21 01:17:04;;;;;;;2.95;1.30;;;;;;;16.59;55.98;96655.84;6216420;23;19915;-77
2022/06/21 01:19:38;;;;;;;2.00;1.23;;;;;;;16.65;59.63;96654.97;6216234;23;20389;-77
2022/06/21 01:22:28;;;;;;;6.03;1.33;;;;;;;16.66;55.44;96648.66;6215613;23;20059;-77
2022/06/21 01:25:09;;;;;;;1.63;1.15;;;;;;;16.60;54.01;96644.31;6216306;23;20048;-77
2022/06/21 01:27:39;;;;;;;1.73;1.02;;;;;;;16.55;53.87;96644.13;6241410;23;20047;-77
2022/06/21 01:30:08;;;;;;;1.70;1.30;;;;;;;16.58;59.51;96654.25;6246460;23;20099;-77
2022/06/21 01:32:37;;;;;;;7.32;1.52;;;;;;;16.65;57.89;96649.72;6246559;23;20074;-77
2022/06/21 01:35:11;;;;;;;0.90;0.80;;;;;;;16.64;54.96;96643.66;6246290;23;20028;-77
2022/06/21 01:37:40;;;;;;;1.60;1.13;;;;;;;16.67;57.62;96637.13;6246379;23;20031;-77
2022/06/21 01:40:11;;;;;;;3.35;1.52;;;;;;;16.58;52.76;96639.25;6245393;23;20087;-77
2022/06/21 01:42:44;;;;;;;3.55;1.13;;;;;;;16.45;52.58;96636.75;6245930;23;20020;-77
2022/06/21 01:45:16;;;;;;;3.15;1.15;;;;;;;16.40;53.89;96631.34;6246073;23;20074;-77
2022/06/21 01:47:50;;;;;;;4.28;1.20;;;;;;;16.38;52.96;96636.03;6244724;23;20579;-77
2022/06/21 01:50:20;;;;;;;2.72;0.80;;;;;;;16.38;57.03;96618.38;6246054;23;20020;-78
2022/06/21 01:52:51;;;;;;;2.45;1.20;;;;;;;16.42;54.55;96624.00;6246231;23;20020;-77
2022/06/21 01:55:36;;;;;;;1.75;1.30;;;;;;;16.35;54.08;96626.72;6245977;23;20074;-77
2022/06/21 01:58:08;;;;;;;1.45;1.15;;;;;;;16.38;60.78;96636.81;6245679;23;20070;-77
2022/06/21 02:00:40;;;;;;;1.55;1.30;;;;;;;16.40;56.75;96632.13;6243917;23;20123;-77
2022/06/21 02:03:12;;;;;;;1.42;1.30;;;;;;;16.43;58.22;96623.78;6244433;23;20047;-76
2022/06/21 02:05:46;;;;;;;3.10;1.40;;;;;;;16.47;60.59;96617.06;6245844;23;20016;-77
2022/06/21 02:08:17;;;;;;;1.80;1.60;;;;;;;16.42;56.20;96616.94;6246196;23;20023;-77
2022/06/21 02:10:48;;;;;;;3.17;1.88;;;;;;;16.31;55.64;96607.13;6246076;23;20086;-77
2022/06/21 02:13:22;;;;;;;3.15;2.03;;;;;;;16.14;55.74;96609.50;6245586;23;20060;-77
2022/06/21 02:15:53;;;;;;;1.77;1.65;;;;;;;16.09;58.03;96604.06;6245491;23;20020;-77
2022/06/21 02:18:23;;;;;;;3.78;1.90;;;;;;;16.10;56.63;96594.38;6244191;23;20017;-77
2022/06/21 02:20:55;;;;;;;4.90;2.25;;;;;;;16.02;56.33;96590.97;6247143;23;20016;-77
2022/06/21 02:23:23;;;;;;;;;;;;;;;15.97;56.15;96582.13;6261465;23;20399;-77
2022/06/21 02:25:52;;;;;;;4.47;2.13;;;;;;;15.88;56.68;96580.81;6260290;23;19916;-78
2022/06/21 02:28:23;;;;;;;2.25;1.88;;;;;;;15.89;58.11;96579.78;6255116;23;20035;-77
2022/06/21 02:30:53;;;;;;;2.50;1.90;;;;;;;15.86;57.10;96559.97;6246109;23;20391;-77
2022/06/21 02:33:24;;;;;;;2.47;1.70;;;;;;;15.84;57.29;96564.63;6245846;23;20057;-77
2022/06/21 02:35:55;;;;;;;3.58;1.80;;;;;;;15.92;61.28;96574.91;6246306;23;20047;-77
2022/06/21 02:38:26;;;;;;;1.52;1.13;;;;;;;16.01;61.92;96572.78;6246035;23;20099;-76
2022/06/21 02:40:59;;;;;;;2.95;1.33;;;;;;;16.03;60.28;96555.75;6245290;23;20063;-77
2022/06/21 02:43:33;;;;;;;1.60;1.50;;;;;;;16.01;62.50;96573.59;6248908;23;20483;-77
2022/06/21 02:46:08;;;;;;;2.08;1.50;;;;;;;15.98;63.37;96563.50;6246429;23;20468;-77
2022/06/21 02:48:45;;;;;;;2.50;1.52;;;;;;;16.02;60.34;96571.75;6247263;23;20024;-77
2022/06/21 02:51:17;;;;;;;2.10;1.67;;;;;;;15.99;62.71;96578.25;6246805;23;20070;-76
2022/06/21 02:53:48;;;;;;;;;;;;;;;16.00;62.02;96585.13;6246368;23;20104;-77
2022/06/21 02:56:22;;;;;;;5.15;1.80;;;;;;;15.93;58.42;96584.38;6245017;23;20375;-77
2022/06/21 02:58:55;;;;;;;2.65;1.42;;;;;;;15.86;60.64;96584.44;6245729;23;20019;-77
2022/06/21 03:01:28;;;;;;;4.35;2.20;;;;;;;15.72;58.04;96582.13;6244958;23;20126;-77
2022/06/21 03:03:58;;;;;;;2.90;1.55;;;;;;;15.67;60.58;96577.47;6245883;23;20027;-77
2022/06/21 03:06:28;;;;;;;2.78;1.73;;;;;;;15.69;59.45;96572.03;6245391;23;20086;-77
2022/06/21 03:09:01;;;;;;;1.70;1.58;;;;;;;15.66;60.37;96575.88;6245359;23;20093;-77
2022/06/21 03:11:36;;;;;;;4.10;1.60;;;;;;;15.68;59.70;96576.47;6244765;23;20658;-77
2022/06/21 03:14:07;;;;;;;1.83;1.73;;;;;;;15.66;60.29;96574.06;6245176;23;20099;-77
2022/06/21 03:16:35;;;;;;;2.72;1.70;;;;;;;15.74;63.36;96583.56;6244612;23;20016;-77
2022/06/21 03:19:06;;;;;;;2.15;1.80;;;;;;;15.82;61.06;96575.38;6245355;23;20075;-77
2022/06/21 03:21:36;;;;;;;2.03;1.80;;;;;;;15.85;62.91;96576.75;6244705;23;20530;-77
2022/06/21 03:24:08;;;;;;;1.98;1.88;;;;;;;15.85;61.60;96571.50;6245231;23;20104;-77
2022/06/21 03:26:40;;;;;;;3.78;2.20;;;;;;;15.73;58.02;96570.59;6244998;23;20127;-77
2022/06/21 03:29:08;;;;;;;6.82;2.75;;;;;;;15.57;58.39;96569.28;6244828;23;20027;-77
2022/06/21 03:31:40;;;;;;;4.93;1.95;;;;;;;15.58;62.99;96574.31;6244703;23;20067;-78
2022/06/21 03:34:11;;;;;;;1.85;1.50;;;;;;;15.70;63.50;96568.34;6245339;23;20070;-77
2022/06/21 03:36:40;;;;;;;2.35;2.00;;;;;;;15.78;61.74;96571.56;6245314;23;20104;-77
2022/06/21 03:39:12;;;;;;;1.90;1.80;;;;;;;15.85;62.27;96576.75;6244723;23;20099;-77
2022/06/21 03:41:44;;;;;;;2.97;2.08;;;;;;;15.92;60.84;96576.69;6244717;23;20054;-78
2022/06/21 03:44:20;;;;;;;4.47;2.15;;;;;;;15.98;62.47;96574.03;6245390;23;20082;-77
2022/06/21 03:46:53;;;;;;;1.88;1.40;;;;;;;16.05;62.06;96580.03;6244477;23;20024;-78
2022/06/21 03:49:28;;;;;;;3.55;1.88;;;;;;;16.14;61.80;96570.03;6245111;23;20078;-77
2022/06/21 03:51:56;;;;;;;2.15;1.60;;;;;;;16.16;60.42;96561.91;6244388;23;20027;-77
2022/06/21 03:54:28;;;;;;;3.88;1.55;;;;;;;16.19;60.71;96561.47;6244761;23;20024;-77
2022/06/21 03:57:01;;;;;;;2.15;1.52;;;;;;;16.19;61.45;96545.69;6244615;23;20027;-77
2022/06/21 03:59:40;;;;;;;2.58;1.35;;;;;;;16.14;57.57;96548.97;6245260;23;20103;-77
2022/06/21 04:02:16;;;;;;;2.17;1.52;;;;;;;16.01;56.47;96542.03;6244825;23;20153;-77
2022/06/21 04:04:49;;;;;;;4.22;1.67;;;;;;;15.95;59.82;96536.81;6245009;23;20024;-77
2022/06/21 04:07:24;;;;;;;1.52;1.40;;;;;;;15.98;62.35;96531.94;6244689;23;20099;-77
2022/06/21 04:10:00;;;;;;;2.33;1.80;;;;;;;15.98;57.53;96534.56;6246673;23;20095;-78
2022/06/21 04:12:34;;;;;;;1.52;1.40;;;;;;;15.98;60.80;96539.00;6247234;23;20055;-77
2022/06/21 04:15:08;;;;;;;2.70;2.03;;;;;;;15.90;56.85;96537.47;6247360;23;20103;-77
2022/06/21 04:17:44;;;;;;;1.90;1.75;;;;;;;15.85;61.92;96540.75;6247154;23;20020;-77
2022/06/21 04:20:22;;;;;;;1.70;1.60;;;;;;;15.90;60.67;96545.38;6246314;23;20456;-77
2022/06/21 04:22:53;;;;;;;1.60;1.50;;;;;;;15.92;60.92;96545.97;6247363;23;20499;-77
2022/06/21 04:25:28;;;;;;;1.67;1.58;;;;;;;15.93;59.88;96547.56;6247466;23;20024;-77
2022/06/21 04:27:59;;;;;;;2.22;1.65;;;;;;;15.95;57.26;96544.72;6246387;23;20468;-77
2022/06/21 04:30:34;;;;;;;2.85;1.52;;;;;;;15.89;53.18;96545.56;6246691;23;20024;-77
2022/06/21 04:33:07;;;;;;;2.92;1.20;;;;;;;15.86;52.81;96542.34;6247426;23;20020;-77
2022/06/21 04:35:40;;;;;;;2.28;1.58;;;;;;;15.88;51.82;96544.78;6247275;23;20099;-77
2022/06/21 04:38:14;;;;;;;1.17;1.08;;;;;;;15.92;53.18;96548.59;6263909;23;20024;-78
2022/06/21 04:40:47;;;;;;;2.95;1.45;;;;;;;15.95;50.69;96545.50;6270839;23;20008;-78
2022/06/21 04:43:21;;;;;;;2.80;1.42;;;;;;;15.93;50.43;96549.38;6267591;23;20024;-77
2022/06/21 04:45:55;;;;;;;4.18;1.52;;;;;;;15.92;51.18;96542.50;6249036;23;20052;-77
2022/06/21 04:48:33;;;;;;;3.30;1.98;;;;;;;15.97;50.57;96548.72;6248453;23;20463;-78
2022/06/21 04:51:04;;;;;;;6.10;1.83;;;;;;;16.00;50.65;96548.28;6249953;23;20040;-77
2022/06/21 04:53:42;;;;;;;6.03;2.05;;;;;;;16.02;49.99;96551.50;6247967;23;20024;-77
2022/06/21 04:56:21;;;;;;;3.55;1.60;;;;;;;16.08;50.73;96546.41;6247479;23;20024;-76
2022/06/21 04:58:51;;;;;;;3.85;1.67;;;;;;;16.15;50.97;96544.50;6247865;23;20074;-77
2022/06/21 05:01:37;;;;;;;4.10;1.30;;;;;;;16.22;52.24;96545.25;6261916;23;20028;-77
2022/06/21 05:04:11;;;;;;;4.75;1.90;;;;;;;16.24;50.50;96532.66;6256822;23;20020;-76
2022/06/21 05:06:41;;;;;;;4.70;1.70;;;;;;;16.28;51.85;96545.16;6246767;23;20024;-77
2022/06/21 05:09:13;;;;;;;7.10;3.92;;;;;;;16.33;51.09;96551.63;6246634;23;20050;-77
2022/06/21 05:11:40;;;;;;;1.55;1.45;;;;;;;16.33;49.80;96544.50;6246520;23;20381;-77
2022/06/21 05:14:18;;;;;;;4.50;1.70;;;;;;;16.35;49.31;96545.09;6246972;23;20054;-76
2022/06/21 05:16:50;;;;;;;2.40;1.50;;;;;;;16.37;48.81;96548.31;6246881;23;20344;-77
2022/06/21 05:19:22;;;;;;;3.75;1.75;;;;;;;16.40;49.23;96553.16;6247483;23;20452;-79
2022/06/21 05:21:55;;;;;;;4.45;2.10;;;;;;;16.44;49.29;96546.44;6247047;23;20403;-77
2022/06/21 05:24:23;;;;;;;3.00;1.65;;;;;;;16.52;50.18;96547.16;6246340;23;20024;-77
2022/06/21 05:27:02;;;;;;;3.13;1.58;;;;;;;16.60;48.48;96549.50;6247821;23;20052;-77
2022/06/21 05:29:35;;;;;;;2.00;1.30;;;;;;;16.60;48.75;96549.50;6246768;23;20051;-77
2022/06/21 05:32:13;;;;;;;2.33;1.75;;;;;;;16.63;48.07;96546.41;6245644;23;20070;-78
2022/06/21 05:34:44;;;;;;;3.53;1.05;;;;;;;16.66;48.39;96553.84;6247737;23;20074;-79
2022/06/21 05:37:24;;;;;;;3.25;1.48;;;;;;;16.76;48.35;96555.97;6250422;22;20023;-79
2022/06/21 05:39:55;;;;;;;2.63;1.48;;;;;;;16.79;47.84;96545.00;6223287;23;20460;-79
2022/06/21 05:42:30;;;;;;;4.10;1.40;;;;;;;16.82;47.46;96545.41;6218265;22;20419;-78
2022/06/21 05:45:06;;;;;;;7.07;1.85;;;;;;;16.83;46.91;96549.63;6214277;23;20047;-78
2022/06/21 05:47:41;;;;;;;3.35;1.20;;;;;;;16.81;46.92;96548.25;6213441;23;20095;-78
2022/06/21 05:50:14;;;;;;;3.20;1.60;;;;;;;16.79;47.09;96552.91;6213496;23;20095;-78
2022/06/21 05:52:46;;;;;;;3.15;1.60;;;;;;;16.82;47.25;96558.56;6213798;23;20016;-78
2022/06/21 05:55:17;;;;;;;4.45;1.58;;;;;;;16.84;47.57;96563.63;6213645;23;20148;-78
2022/06/21 05:57:50;;;;;;;6.15;1.83;;;;;;;16.84;47.32;96559.16;6214113;23;20459;-78
2022/06/21 06:00:21;;;;;;;;;;;;;;;16.86;47.90;96559.72;6216114;23;20024;-78
2022/06/21 06:02:54;;;;;;;2.13;1.52;;;;;;;16.94;48.79;96563.06;6216021;23;20393;-78
2022/06/21 06:05:27;;;;;;;3.42;1.55;;;;;;;16.97;47.71;96562.66;6215980;23;20021;-79
2022/06/21 06:07:59;;;;;;;3.60;1.10;;;;;;;16.99;47.63;96550.03;6216079;23;20384;-78
2022/06/21 06:10:29;;;;;;;6.35;1.90;;;;;;;17.00;47.60;96552.44;6215934;23;20052;-78
2022/06/21 06:13:00;;;;;;;5.05;1.75;;;;;;;17.02;47.14;96550.41;6216159;23;20280;-78
2022/06/21 06:15:32;;;;;;;7.35;2.15;;;;;;;17.03;47.47;96548.56;6223217;23;20025;-78
2022/06/21 06:18:13;;;;;;;3.20;1.30;;;;;;;17.05;47.66;96543.88;6235424;23;20025;-78
2022/06/21 06:20:45;;;;;;;2.58;1.52;;;;;;;17.11;47.86;96544.81;6232331;23;20024;-79
2022/06/21 06:23:18;;;;;;;7.43;1.55;;;;;;;17.16;47.45;96550.22;6216868;23;20052;-78
2022/06/21 06:25:51;;;;;;;3.67;1.30;;;;;;;17.22;47.27;96555.38;6215081;23;20490;-81
2022/06/21 06:28:24;;;;;;;3.22;1.48;;;;;;;17.29;48.83;96545.56;6207757;23;20017;-81
2022/06/21 06:30:57;;;;;;;;;;;;;;;17.38;47.65;96543.41;6206572;23;20028;-80
2022/06/21 06:33:32;;;;;;;3.50;1.83;;;;;;;17.39;47.05;96544.22;6209086;23;19916;-81
2022/06/21 06:36:14;;;;;;;2.85;1.90;;;;;;;17.40;47.12;96551.88;6208243;23;20017;-81
2022/06/21 06:38:43;;;;;;;4.43;1.40;;;;;;;17.45;47.76;96559.13;6207554;23;20040;-79
2022/06/21 06:41:14;;;;;;;3.95;1.58;;;;;;;17.50;47.54;96561.88;6207871;23;20393;-80
2022/06/21 06:43:47;;;;;;;4.28;1.63;;;;;;;17.57;47.26;96562.56;6209160;23;20025;-81
2022/06/21 06:46:28;;;;;;;7.50;1.80;;;;;;;17.62;46.94;96554.81;6209225;23;20028;-79
2022/06/21 06:49:08;;;;;;;3.53;1.70;;;;;;;17.67;47.31;96559.41;6207737;23;20457;-81
2022/06/21 06:51:45;;;;;;;3.22;1.40;;;;;;;17.73;47.10;96560.31;6207694;23;20072;-81
2022/06/21 06:54:25;;;;;;;2.40;1.70;;;;;;;17.79;45.92;96567.31;6208423;23;20021;-80
2022/06/21 06:57:02;;;;;;;5.43;1.65;;;;;;;17.85;45.86;96571.72;6208002;23;20016;-80
2022/06/21 06:59:30;;;;;;;3.35;1.60;;;;;;;17.89;45.87;96572.88;6208346;23;20009;-81
2022/06/21 07:02:02;;;;;;;7.00;1.58;;;;;;;17.90;45.61;96575.25;6209465;23;20021;-80
2022/06/21 07:04:36;;;;;;;3.75;1.80;;;;;;;17.92;45.29;96585.59;6208097;23;20013;-80
2022/06/21 07:07:12;;;;;;;5.47;1.35;;;;;;;17.96;44.80;96585.94;6207559;23;20090;-81
2022/06/21 07:09:45;;;;;;;4.88;1.70;;;;;;;17.99;44.64;96565.16;6208355;23;20025;-81
2022/06/21 07:12:18;;;;;;;2.53;1.58;;;;;;;18.03;45.25;96561.03;6209266;23;20032;-80
2022/06/21 07:14:47;;;;;;;5.18;1.77;;;;;;;18.08;45.11;96563.81;6207817;23;20021;-78
2022/06/21 07:17:22;;;;;;;2.22;1.38;;;;;;;18.12;44.68;96575.50;6209028;23;20024;-80
2022/06/21 07:19:53;;;;;;;2.50;1.70;;;;;;;18.14;44.41;96562.06;6209432;23;20026;-79
2022/06/21 07:22:23;;;;;;;2.42;1.40;;;;;;;18.16;44.39;96567.94;6207857;23;20021;-81
2022/06/21 07:24:58;;;;;;;2.60;1.40;;;;;;;18.19;44.06;96579.84;6208728;23;20021;-78
2022/06/21 07:27:28;;;;;;;3.00;1.10;;;;;;;18.19;44.23;96564.00;6208782;23;20276;-80
2022/06/21 07:30:01;;;;;;;2.00;1.20;;;;;;;18.24;44.07;96559.66;6208085;23;20036;-79
2022/06/21 07:32:35;;;;;;;4.95;1.83;;;;;;;18.30;43.92;96555.28;6207972;23;20024;-79
2022/06/21 07:35:10;;;;;;;3.40;1.60;;;;;;;18.34;43.74;96564.34;6209769;23;20032;-80
2022/06/21 07:37:43;;;;;;;3.10;1.35;;;;;;;18.39;43.80;96572.41;6210188;23;20021;-80
2022/06/21 07:40:16;;;;;;;3.63;1.30;;;;;;;18.47;43.85;96566.72;6209522;23;20075;-78
2022/06/21 07:42:51;;;;;;;3.97;1.35;;;;;;;18.53;43.71;96565.00;6208929;23;20028;-80
2022/06/21 07:45:26;;;;;;;2.42;1.45;;;;;;;18.61;44.07;96559.38;6209398;23;20032;-81
2022/06/21 07:47:59;;;;;;;3.90;1.65;;;;;;;18.71;43.57;96562.19;6208905;23;20406;-80
2022/06/21 07:50:35;;;;;;;3.65;1.30;;;;;;;18.83;43.48;96574.63;6209841;23;20021;-80
2022/06/21 07:53:11;;;;;;;3.58;1.85;;;;;;;18.92;43.04;96584.59;6209912;23;20372;-80
2022/06/21 07:55:42;;;;;;;2.13;1.13;;;;;;;18.98;43.73;96595.25;6209583;23;20032;-80
2022/06/21 07:58:13;;;;;;;3.78;2.33;;;;;;;19.05;43.26;96593.28;6209610;23;20079;-79
2022/06/21 08:06:45;;;;;;;3.20;1.40;;;;;;;19.25;42.47;96577.00;6209718;23;20017;-80
2022/06/21 08:09:25;;;;;;;1.25;1.05;;;;;;;19.35;42.46;96577.19;6210895;23;20009;-79
2022/06/21 08:12:00;;;;;;;3.35;1.15;;;;;;;19.44;42.97;96569.63;6210410;23;20025;-79
2022/06/21 08:14:31;;;;;;;2.47;1.38;;;;;;;19.57;42.47;96566.69;6209870;23;20028;-79
2022/06/21 08:17:06;;;;;;;4.30;1.20;;;;;;;19.67;42.19;96568.69;6210190;23;20017;-80
2022/06/21 08:19:40;;;;;;;3.60;1.73;;;;;;;19.73;41.78;96576.50;6210176;23;20025;-79
2022/06/21 08:22:18;;;;;;;1.63;1.33;;;;;;;19.82;41.94;96573.47;6210390;23;20005;-80
2022/06/21 08:24:53;;;;;;;1.98;1.20;;;;;;;19.91;42.58;96569.38;6210551;23;20040;-80
2022/06/21 08:27:30;;;;;;;2.75;1.30;;;;;;;20.03;42.15;96569.25;6210118;23;20009;-79
2022/06/21 08:30:06;;;;;;;1.95;1.35;;;;;;;20.17;42.48;96567.91;6210332;23;20055;-81
2022/06/21 08:32:39;;;;;;;3.88;1.45;;;;;;;20.27;41.67;96559.28;6210325;23;20052;-79
2022/06/21 08:35:16;;;;;;;3.28;1.38;;;;;;;20.34;41.69;96560.72;6211167;23;20101;-79
2022/06/21 08:37:53;;;;;;;5.35;1.25;;;;;;;20.43;41.59;96553.16;6210568;23;20029;-79
2022/06/21 08:40:39;;;;;;;5.22;1.40;;;;;;;20.50;41.09;96556.41;6211287;23;20397;-80
2022/06/21 08:43:34;;;;;;;4.80;1.52;;;;;;;20.55;40.37;96564.44;6211331;23;20024;-79
2022/06/21 08:46:49;;;;;;;1.15;0.90;;;;;;;20.54;40.75;96562.81;6211240;23;20025;-80
2022/06/21 08:49:48;;;;;;;2.30;1.58;;;;;;;20.61;40.44;96557.38;6211487;23;20024;-79
2022/06/21 08:52:46;;;;;;;2.90;1.52;;;;;;;20.67;40.46;96548.44;6210418;23;20009;-79
2022/06/21 08:55:27;;;;;;;1.55;1.00;;;;;;;20.78;40.53;96536.09;6212490;23;20041;-80
2022/06/21 08:58:11;;;;;;;2.58;1.27;;;;;;;20.89;40.14;96526.41;6212649;23;20021;-79
2022/06/21 09:00:47;;;;;;;5.85;1.63;;;;;;;20.97;39.62;96520.66;6212339;23;20005;-79
2022/06/21 09:03:40;;;;;;;3.53;1.45;;;;;;;21.09;39.85;96516.00;6212820;23;20032;-80
2022/06/21 09:06:16;;;;;;;4.30;1.10;;;;;;;21.20;40.58;96514.25;6212683;23;20028;-79
2022/06/21 09:09:04;;;;;;;2.55;1.23;;;;;;;21.27;39.65;96509.53;6212853;23;20021;-80
2022/06/21 09:11:43;;;;;;;2.03;1.20;;;;;;;21.31;39.40;96501.88;6212771;23;20025;-81
2022/06/21 09:14:36;;;;;;;3.30;1.30;;;;;;;21.39;39.22;96496.13;6212463;23;20512;-78
2022/06/21 09:17:14;;;;;;;2.45;1.23;;;;;;;21.50;39.27;96489.06;6212968;23;20021;-79
2022/06/21 09:20:00;;;;;;;3.35;1.20;;;;;;;21.61;39.48;96490.75;6213363;23;20005;-80
2022/06/21 09:22:37;;;;;;;1.95;1.10;;;;;;;21.70;38.77;96494.50;6213226;23;20012;-79
2022/06/21 09:25:13;;;;;;;2.15;0.90;;;;;;;21.78;39.37;96496.69;6213096;23;20025;-80
2022/06/21 09:27:49;;;;;;;2.63;1.30;;;;;;;21.84;38.73;96497.50;6212638;23;20044;-80
2022/06/21 09:30:21;;;;;;;2.47;1.40;;;;;;;21.85;38.16;96496.47;6213196;23;20017;-79
2022/06/21 09:32:59;;;;;;;3.95;1.20;;;;;;;21.85;38.30;96493.81;6213284;23;20005;-79
2022/06/21 09:35:45;;;;;;;3.80;1.02;;;;;;;21.87;37.33;96499.69;6212797;23;20021;-80
2022/06/21 09:38:27;;;;;;;2.13;1.08;;;;;;;21.86;37.50;96500.72;6213035;23;20072;-79
2022/06/21 09:41:05;;;;;;;3.03;1.40;;;;;;;21.87;36.71;96506.84;6213201;23;20025;-79
2022/06/21 09:43:49;;;;;;;2.63;1.25;;;;;;;21.86;37.64;96498.06;6213373;23;20043;-80
2022/06/21 09:46:29;;;;;;;1.70;1.00;;;;;;;21.83;36.35;96476.53;6212932;23;20009;-79
2022/06/21 09:49:05;;;;;;;2.10;0.98;;;;;;;21.78;36.70;96453.44;6212838;23;20005;-79
2022/06/21 09:51:46;;;;;;;3.40;1.65;;;;;;;21.76;36.96;96440.41;6212571;23;20025;-80
2022/06/21 09:54:31;;;;;;;2.17;1.10;;;;;;;21.75;36.72;96446.75;6212925;23;20021;-79
2022/06/21 09:57:12;;;;;;;2.33;1.00;;;;;;;21.76;36.13;96466.94;6212516;23;20027;-81
2022/06/21 09:59:50;;;;;;;3.35;1.73;;;;;;;21.82;35.97;96473.06;6213208;23;20031;-80
2022/06/21 10:02:30;;;;;;;2.35;1.15;;;;;;;21.88;36.24;96466.75;6213287;23;20077;-80
2022/06/21 10:05:11;;;;;;;2.78;1.00;;;;;;;21.97;36.04;96459.91;6188671;23;20036;-80
2022/06/21 10:07:52;;;;;;;1.00;0.90;;;;;;;22.10;36.86;96473.75;6214259;23;20009;-80
2022/06/21 10:10:34;;;;;;;1.45;0.77;;;;;;;22.21;37.14;96472.75;6214213;23;20005;-79
2022/06/21 10:13:16;;;;;;;1.02;0.80;;;;;;;22.33;36.26;96470.72;6212987;23;20009;-80
2022/06/21 10:15:53;;;;;;;4.47;1.00;;;;;;;22.44;35.33;96482.19;6213296;23;20072;-80
2022/06/21 10:19:03;;;;;;;1.75;0.98;;;;;;;22.49;35.57;96479.53;6213321;23;20008;-79
2022/06/21 10:21:57;;;;;;;1.63;0.90;;;;;;;22.54;35.16;96476.91;6213235;23;20005;-78
2022/06/21 10:25:03;;;;;;;1.23;0.77;;;;;;;22.57;35.26;96486.22;6212800;23;20025;-80
2022/06/21 10:27:58;;;;;;;1.27;0.88;;;;;;;22.59;35.62;96490.22;6206622;23;20025;-80
2022/06/21 10:30:53;;;;;;;2.85;0.98;;;;;;;22.62;36.24;96495.00;6213269;23;20048;-80
2022/06/21 10:33:44;;;;;;;1.95;1.15;;;;;;;22.67;36.48;96490.75;6212940;23;20028;-78
2022/06/21 10:36:49;;;;;;;2.08;1.10;;;;;;;22.75;36.34;96492.91;6212585;23;20037;-79
2022/06/21 10:39:35;;;;;;;2.58;1.10;;;;;;;22.83;36.50;96495.06;6213179;23;20013;-79
2022/06/21 10:45:33;;;;;;;2.20;0.90;;;;;;;22.99;35.88;96488.72;6161154;23;20024;-79
2022/06/21 10:48:33;;;;;;;1.90;1.10;;;;;;;23.03;35.85;96484.50;6213247;23;20005;-80
2022/06/21 10:51:17;;;;;;;2.55;1.27;;;;;;;23.06;36.09;96485.81;6213169;23;20021;-79
2022/06/21 10:54:05;;;;;;;3.08;1.05;;;;;;;23.13;35.76;96472.25;6213299;23;20094;-79
2022/06/21 11:03:25;;;;;;;2.92;1.38;;;;;;;23.36;37.29;96473.59;6212965;23;20080;-78
2022/06/21 11:06:13;;;;;;;3.13;1.13;;;;;;;23.44;36.88;96457.09;6179893;23;20004;-79
2022/06/21 11:08:53;;;;;;;3.53;1.58;;;;;;;23.52;36.50;96434.47;6212703;23;20555;-79
2022/06/21 11:11:33;;;;;;;4.68;1.23;;;;;;;23.58;35.62;96433.38;6187870;23;20011;-80
2022/06/21 11:14:13;;;;;;;4.03;1.10;;;;;;;23.61;35.79;96425.69;6213192;23;20053;-79
2022/06/21 11:16:52;;;;;;;7.00;1.20;;;;;;;23.64;35.87;96419.00;6213404;23;20025;-79
2022/06/21 11:19:27;;;;;;;4.07;0.88;;;;;;;23.66;36.46;96422.19;6213309;23;20095;-80
2022/06/21 11:22:18;;;;;;;3.75;1.52;;;;;;;23.73;36.54;96413.94;6213662;23;20032;-79
2022/06/21 11:25:05;;;;;;;4.93;1.50;;;;;;;23.80;36.23;96411.81;6187594;23;20016;-79
2022/06/21 11:27:48;;;;;;;6.15;1.50;;;;;;;23.84;37.10;96418.97;6212822;23;20045;-79
2022/06/21 11:30:30;;;;;;;3.03;1.15;;;;;;;23.90;37.62;96408.28;6213004;23;20008;-80
2022/06/21 11:33:08;;;;;;;6.30;1.30;;;;;;;23.97;37.14;96414.94;6213415;23;20016;-80
2022/06/21 11:35:45;;;;;;;5.25;1.48;;;;;;;24.04;37.13;96412.00;6213465;23;20027;-79
2022/06/21 11:38:39;;;;;;;5.65;2.30;;;;;;;24.10;37.07;96410.13;6213285;23;20055;-79
2022/06/21 11:42:03;;;;;;;2.88;1.52;;;;;;;24.15;36.93;96404.75;6212371;23;20072;-81
2022/06/21 11:44:12;;;;;;;2.72;1.30;;;;;;;24.16;36.53;96396.50;6212951;23;20017;-81
2022/06/21 11:46:52;;;;;;;2.72;1.38;;;;;;;24.17;37.13;96403.41;6212807;23;20051;-80
2022/06/21 11:49:47;;;;;;;2.25;1.52;;;;;;;24.20;37.19;96402.84;6213507;23;20012;-79
2022/06/21 11:52:57;;;;;;;5.13;1.98;;;;;;;24.24;37.38;96401.22;6212980;23;20024;-79
2022/06/21 11:55:33;;;;;;;1.50;1.20;;;;;;;24.32;37.34;96397.22;6213340;23;20033;-79
2022/06/21 11:58:19;;;;;;;3.55;2.03;;;;;;;24.39;37.67;96395.03;6213540;23;20024;-81
2022/06/21 12:01:03;;;;;;;7.22;1.70;;;;;;;24.46;38.09;96384.84;6213226;23;20005;-79
2022/06/21 12:03:47;;;;;;;3.13;1.60;;;;;;;24.53;37.38;96368.56;6213485;23;20031;-79
2022/06/21 12:06:29;;;;;;;8.32;1.77;;;;;;;24.61;37.73;96370.66;6188386;23;20039;-80
2022/06/21 12:09:10;;;;;;;4.15;1.35;;;;;;;24.66;37.00;96367.16;6213264;23;20029;-80
2022/06/21 12:12:03;;;;;;;2.67;1.25;;;;;;;24.65;36.97;96358.38;6213145;23;20028;-80
2022/06/21 12:14:49;;;;;;;1.90;1.52;;;;;;;24.70;37.49;96344.19;6213000;23;20028;-80
2022/06/21 12:17:25;;;;;;;3.42;1.67;;;;;;;24.75;37.32;96332.69;6213334;23;20033;-80
2022/06/21 12:20:01;;;;;;;3.83;1.63;;;;;;;24.79;37.04;96337.19;6213445;23;20009;-80
2022/06/21 12:22:40;;;;;;;2.60;1.55;;;;;;;24.85;36.53;96335.28;6213376;23;20017;-79
2022/06/21 12:25:18;;;;;;;1.80;1.33;;;;;;;24.89;36.99;96336.31;6188202;23;20052;-81
2022/06/21 12:28:04;;;;;;;2.08;1.45;;;;;;;24.96;37.14;96322.66;6213489;23;20084;-80
2022/06/21 12:30:59;;;;;;;5.30;1.90;;;;;;;25.01;36.96;96333.28;6215153;23;20005;-79
2022/06/21 12:33:36;;;;;;;4.63;1.73;;;;;;;25.07;37.83;96348.97;6190056;23;20021;-79